Time;durP1;ratioP1;P1;durP2;ratioP2;P2;SDS_P1;SDS_P2;PMS_P1;PMS_P2;Temp;Humidity;BMP_temperature;BMP_pressure;BME280_temperature;BME280_humidity;BME280_pressure;Samples;Min_cycle;Max_cycle;Signal;HPM_P1;HPM_P2
2022/12/17 13:07:29;;;;;;;11.77;3.53;;;;;;;;;;6174162;22;20501;-51
2022/12/17 13:09:56;;;;;;;9.70;2.95;;;;;;;;;;6205686;22;20077;-53
2022/12/17 13:12:27;;;;;;;11.68;3.38;;;;;;;;;;6241466;22;20020;-53
2022/12/17 13:14:56;;;;;;;13.57;3.43;;;;;;;;;;6232188;22;20069;-51
2022/12/17 13:17:31;;;;;;;7.93;2.97;;;;;;;;;;6240554;22;20024;-54
2022/12/17 13:19:59;;;;;;;7.53;2.75;;;;;;;;;;6242119;22;20011;-53
2022/12/17 13:22:29;;;;;;;9.23;2.83;;;;;;;;;;6227171;22;20105;-49
2022/12/17 13:24:57;;;;;;;10.25;2.58;;;;;;;;;;6238393;22;20016;-49
2022/12/17 13:27:31;;;;;;;12.63;3.17;;;;;;;;;;6213396;22;20451;-51
2022/12/17 13:30:00;;;;;;;11.07;3.53;;;;;;;;;;6195971;22;20331;-54
2022/12/17 13:32:29;;;;;;;9.07;3.08;;;;;;;;;;6217255;22;20080;-50
2022/12/17 13:35:05;;;;;;;13.73;3.13;;;;;;;;;;6221342;22;20015;-52
2022/12/17 13:37:35;;;;;;;10.95;3.60;;;;;;;;;;6220833;22;20644;-50
2022/12/17 13:40:06;;;;;;;10.23;3.20;;;;;;;;;;6212895;22;20065;-52
2022/12/17 13:42:41;;;;;;;9.32;3.25;;;;;;;;;;6210575;22;20050;-51
2022/12/17 13:45:14;;;;;;;11.75;3.58;;;;;;;;;;6239060;22;20011;-53
2022/12/17 13:47:44;;;;;;;10.32;2.95;;;;;;;;;;6230268;22;20048;-54
2022/12/17 13:50:19;;;;;;;10.27;3.55;;;;;;;;;;6242786;22;20016;-53
2022/12/17 13:52:46;;;;;;;11.97;3.40;;;;;;;;;;6233037;22;20020;-54
2022/12/17 13:55:17;;;;;;;10.00;3.42;;;;;;;;;;6241891;22;20016;-53
2022/12/17 13:57:47;;;;;;;12.68;4.75;;;;;;;;;;6203193;22;20620;-53
2022/12/17 14:00:19;;;;;;;11.20;3.90;;;;;;;;;;6237356;22;20027;-53
2022/12/17 14:02:47;;;;;;;14.73;4.00;;;;;;;;;;6229289;22;20061;-51
2022/12/17 14:05:21;;;;;;;13.37;4.03;;;;;;;;;;6229502;22;20558;-55
2022/12/17 14:07:51;;;;;;;17.02;4.35;;;;;;;;;;6205490;22;20015;-54
2022/12/17 14:10:18;;;;;;;12.55;4.20;;;;;;;;;;6236749;22;20043;-52
2022/12/17 14:12:45;;;;;;;9.13;4.10;;;;;;;;;;6234905;22;20019;-50
2022/12/17 14:15:18;;;;;;;14.88;4.03;;;;;;;;;;6249639;22;20016;-53
2022/12/17 14:17:46;;;;;;;10.30;3.77;;;;;;;;;;6215230;22;20024;-50
2022/12/17 14:20:14;;;;;;;10.00;3.92;;;;;;;;;;6238948;22;20043;-55
2022/12/17 14:22:42;;;;;;;10.25;3.70;;;;;;;;;;6237604;22;20397;-54
2022/12/17 14:25:15;;;;;;;11.80;4.32;;;;;;;;;;6242048;22;20019;-53
2022/12/17 14:27:48;;;;;;;10.05;3.70;;;;;;;;;;6239722;22;20046;-50
2022/12/17 14:30:24;;;;;;;13.20;3.97;;;;;;;;;;6213990;22;20102;-56
2022/12/17 14:32:51;;;;;;;11.45;4.53;;;;;;;;;;6240152;22;20549;-55
2022/12/17 14:35:25;;;;;;;15.25;4.18;;;;;;;;;;6239188;22;20023;-55
2022/12/17 14:37:53;;;;;;;10.90;4.32;;;;;;;;;;6244992;22;20016;-55
2022/12/17 14:40:20;;;;;;;13.18;4.05;;;;;;;;;;6212508;22;20015;-55
2022/12/17 14:42:46;;;;;;;12.10;3.93;;;;;;;;;;6240678;22;20011;-54
2022/12/17 14:45:22;;;;;;;15.32;4.63;;;;;;;;;;6245504;22;20073;-51
2022/12/17 14:47:54;;;;;;;13.00;5.25;;;;;;;;;;6241878;22;20081;-49
2022/12/17 14:50:25;;;;;;;13.75;4.70;;;;;;;;;;6234384;22;20023;-51
2022/12/17 14:52:53;;;;;;;15.82;5.43;;;;;;;;;;6209282;22;20031;-53
2022/12/17 14:55:30;;;;;;;11.73;4.40;;;;;;;;;;6202840;22;20015;-54
2022/12/17 14:58:07;;;;;;;16.88;3.40;;;;;;;;;;6245500;22;20356;-54
2022/12/17 15:00:34;;;;;;;9.98;2.97;;;;;;;;;;6235545;22;20347;-50
2022/12/17 15:03:02;;;;;;;9.70;3.38;;;;;;;;;;6249559;22;20054;-49
2022/12/17 15:05:28;;;;;;;12.77;3.80;;;;;;;;;;6235860;22;20392;-54
2022/12/17 15:07:56;;;;;;;10.97;2.80;;;;;;;;;;6243326;22;20018;-50
2022/12/17 15:10:22;;;;;;;11.57;2.72;;;;;;;;;;6230586;22;20015;-49
2022/12/17 15:12:50;;;;;;;8.60;2.40;;;;;;;;;;6219042;22;20614;-50
2022/12/17 15:15:16;;;;;;;11.95;2.75;;;;;;;;;;6245672;22;20099;-52
2022/12/17 15:17:43;;;;;;;10.60;3.25;;;;;;;;;;6227887;22;20061;-49
2022/12/17 15:20:22;;;;;;;12.40;2.70;;;;;;;;;;6250891;22;20074;-52
2022/12/17 15:22:49;;;;;;;8.02;2.13;;;;;;;;;;6246273;22;20023;-54
2022/12/17 15:25:16;;;;;;;8.07;2.38;;;;;;;;;;6245855;22;20018;-52
2022/12/17 15:27:43;;;;;;;8.80;1.90;;;;;;;;;;6241349;22;20043;-51
2022/12/17 15:30:12;;;;;;;8.52;2.10;;;;;;;;;;6243422;22;20015;-54
2022/12/17 15:32:39;;;;;;;7.27;1.90;;;;;;;;;;6247002;22;20058;-53
2022/12/17 15:35:06;;;;;;;7.05;1.88;;;;;;;;;;6239097;22;20295;-51
2022/12/17 15:37:34;;;;;;;12.57;2.17;;;;;;;;;;6220870;22;20057;-52
2022/12/17 15:40:00;;;;;;;9.60;2.30;;;;;;;;;;6242559;22;20041;-53
2022/12/17 15:45:10;;;;;;;7.23;1.90;;;;;;;;;;6244631;22;20016;-52
2022/12/17 15:47:37;;;;;;;6.88;1.95;;;;;;;;;;6246012;22;20016;-52
2022/12/17 15:50:04;;;;;;;9.52;2.10;;;;;;;;;;6226629;22;20038;-49
2022/12/17 15:52:30;;;;;;;8.05;2.28;;;;;;;;;;6248210;22;20085;-55
2022/12/17 15:54:58;;;;;;;10.00;2.97;;;;;;;;;;6243341;22;20016;-52
2022/12/17 15:57:25;;;;;;;9.13;2.70;;;;;;;;;;6241875;22;20504;-49
2022/12/17 15:59:51;;;;;;;7.90;2.25;;;;;;;;;;6241144;22;20020;-53
2022/12/17 16:02:18;;;;;;;10.55;2.53;;;;;;;;;;6237739;22;20065;-55
2022/12/17 16:04:44;;;;;;;9.20;2.47;;;;;;;;;;6247129;22;20420;-52
2022/12/17 16:07:11;;;;;;;13.85;3.45;;;;;;;;;;6237557;22;20020;-49
2022/12/17 16:09:38;;;;;;;17.00;3.77;;;;;;;;;;6243938;22;20015;-52
2022/12/17 16:12:06;;;;;;;16.15;4.40;;;;;;;;;;6245157;22;20023;-54
2022/12/17 16:14:34;;;;;;;20.95;5.35;;;;;;;;;;6236066;22;20329;-55
2022/12/17 16:17:00;;;;;;;20.67;4.88;;;;;;;;;;6243558;22;20069;-54
2022/12/17 16:19:27;;;;;;;14.63;3.40;;;;;;;;;;6216457;22;20058;-55
2022/12/17 16:21:57;;;;;;;15.90;4.20;;;;;;;;;;6240259;22;20019;-55
2022/12/17 16:24:23;;;;;;;9.30;2.90;;;;;;;;;;6244240;22;20091;-53
2022/12/17 16:26:50;;;;;;;11.52;3.42;;;;;;;;;;6217286;22;20012;-53
2022/12/17 16:29:17;;;;;;;11.82;3.55;;;;;;;;;;6243712;22;20566;-53
2022/12/17 16:31:45;;;;;;;12.52;4.20;;;;;;;;;;6237372;22;20019;-54
2022/12/17 16:34:12;;;;;;;11.93;2.93;;;;;;;;;;6249698;22;20020;-53
2022/12/17 16:36:38;;;;;;;11.15;2.40;;;;;;;;;;6238535;22;20012;-54
2022/12/17 16:39:05;;;;;;;8.00;2.53;;;;;;;;;;6246105;22;20082;-53
2022/12/17 16:41:32;;;;;;;9.82;2.17;;;;;;;;;;6242087;22;20026;-53
2022/12/17 16:43:59;;;;;;;7.88;2.40;;;;;;;;;;6245671;22;20311;-52
2022/12/17 16:46:28;;;;;;;11.87;2.37;;;;;;;;;;6234064;22;20012;-53
2022/12/17 16:48:55;;;;;;;8.75;1.88;;;;;;;;;;6220513;22;20012;-50
2022/12/17 16:51:22;;;;;;;8.98;2.22;;;;;;;;;;6243812;22;20731;-54
2022/12/17 16:53:49;;;;;;;9.65;2.75;;;;;;;;;;6246253;22;20015;-56
2022/12/17 16:56:16;;;;;;;9.32;2.47;;;;;;;;;;6241877;22;20016;-53
2022/12/17 16:58:43;;;;;;;6.83;2.37;;;;;;;;;;6241515;22;20084;-54
2022/12/17 17:01:09;;;;;;;11.40;2.50;;;;;;;;;;6217205;22;20961;-52
2022/12/17 17:03:39;;;;;;;10.43;2.65;;;;;;;;;;6241644;22;20431;-54
2022/12/17 17:06:06;;;;;;;8.30;2.05;;;;;;;;;;6029307;22;60180;-52
2022/12/17 17:08:33;;;;;;;8.35;2.42;;;;;;;;;;6024036;23;101134;-53
2022/12/17 17:11:04;;;;;;;8.67;2.10;;;;;;;;;;6173886;23;20071;-53
2022/12/17 17:13:31;;;;;;;6.95;1.85;;;;;;;;;;6180966;23;20086;-52
2022/12/17 17:15:57;;;;;;;7.30;2.08;;;;;;;;;;6174938;23;20012;-51
2022/12/17 17:18:24;;;;;;;8.15;2.03;;;;;;;;;;6183617;23;20532;-53
2022/12/17 17:20:52;;;;;;;7.10;2.30;;;;;;;;;;6187464;23;20013;-52
2022/12/17 17:23:18;;;;;;;8.23;2.40;;;;;;;;;;6185804;23;20013;-50
2022/12/17 17:25:45;;;;;;;10.50;2.28;;;;;;;;;;6179073;23;20055;-54
2022/12/17 17:28:11;;;;;;;13.32;2.97;;;;;;;;;;6187879;23;20020;-52
2022/12/17 17:30:37;;;;;;;8.70;2.17;;;;;;;;;;6176311;23;20096;-53
2022/12/17 17:33:04;;;;;;;10.25;2.42;;;;;;;;;;6190952;23;20059;-53
2022/12/17 17:35:30;;;;;;;9.20;2.83;;;;;;;;;;6180223;23;20009;-50
2022/12/17 17:37:58;;;;;;;8.98;2.40;;;;;;;;;;6189551;23;20048;-50
2022/12/17 17:40:25;;;;;;;10.57;3.25;;;;;;;;;;6182146;23;20017;-52
2022/12/17 17:42:51;;;;;;;11.95;2.97;;;;;;;;;;6147416;23;20355;-53
2022/12/17 17:45:18;;;;;;;9.23;3.15;;;;;;;;;;6181777;23;20028;-51
2022/12/17 17:47:44;;;;;;;12.87;3.67;;;;;;;;;;6198837;23;87011;-52
2022/12/17 17:50:11;;;;;;;25.00;7.65;;;;;;;;;;6195366;23;20016;-51
2022/12/17 17:52:37;;;;;;;18.08;6.43;;;;;;;;;;6210087;23;20459;-51
2022/12/17 17:55:06;;;;;;;27.88;8.18;;;;;;;;;;6177603;23;20390;-51
2022/12/17 17:57:32;;;;;;;18.70;6.35;;;;;;;;;;6180267;23;20058;-52
2022/12/17 17:59:58;;;;;;;19.63;7.87;;;;;;;;;;6197231;23;20501;-53
2022/12/17 18:02:25;;;;;;;22.23;6.82;;;;;;;;;;6203686;23;20397;-54
2022/12/17 18:04:52;;;;;;;11.65;4.15;;;;;;;;;;6196957;23;20051;-53
2022/12/17 18:07:22;;;;;;;28.48;8.57;;;;;;;;;;6208917;23;20028;-54
2022/12/17 18:09:49;;;;;;;21.10;8.23;;;;;;;;;;6195341;23;20026;-52
2022/12/17 18:15:02;;;;;;;13.30;5.88;;;;;;;;;;6151517;23;20263;-52
2022/12/17 18:17:29;;;;;;;15.82;5.75;;;;;;;;;;6214245;23;20012;-54
2022/12/17 18:19:55;;;;;;;14.35;5.50;;;;;;;;;;6211372;23;20439;-52
2022/12/17 18:22:22;;;;;;;16.33;5.05;;;;;;;;;;6206473;23;20062;-53
2022/12/17 18:24:48;;;;;;;10.53;3.33;;;;;;;;;;6213820;23;20509;-54
2022/12/17 18:27:15;;;;;;;12.32;4.18;;;;;;;;;;6202049;23;20118;-53
2022/12/17 18:29:43;;;;;;;10.88;3.50;;;;;;;;;;6218173;23;20451;-54
2022/12/17 18:32:09;;;;;;;11.25;4.40;;;;;;;;;;6203150;23;20564;-54
2022/12/17 18:34:35;;;;;;;10.13;3.80;;;;;;;;;;6191560;23;20024;-54
2022/12/17 18:37:04;;;;;;;12.33;4.10;;;;;;;;;;6198527;23;20019;-52
2022/12/17 18:39:30;;;;;;;12.02;3.65;;;;;;;;;;6215824;23;20106;-52
2022/12/17 18:44:41;;;;;;;13.32;3.78;;;;;;;;;;6201398;23;20105;-55
2022/12/17 18:47:10;;;;;;;12.38;3.85;;;;;;;;;;6201113;23;20074;-56
2022/12/17 18:49:37;;;;;;;9.77;3.43;;;;;;;;;;6199312;23;20024;-49
2022/12/17 18:52:04;;;;;;;11.18;3.20;;;;;;;;;;6209680;23;20030;-52
2022/12/17 18:54:32;;;;;;;8.73;2.70;;;;;;;;;;6208262;23;20043;-50
2022/12/17 18:56:59;;;;;;;9.02;3.42;;;;;;;;;;6208385;23;20016;-50
2022/12/17 18:59:26;;;;;;;8.55;2.75;;;;;;;;;;6209811;23;20362;-49
2022/12/17 19:01:53;;;;;;;8.77;2.70;;;;;;;;;;6209891;23;20024;-52
2022/12/17 19:04:21;;;;;;;9.35;3.08;;;;;;;;;;6180178;23;20019;-51
2022/12/17 19:06:50;;;;;;;10.02;3.25;;;;;;;;;;6209042;23;20058;-49
2022/12/17 19:09:18;;;;;;;10.15;3.25;;;;;;;;;;6201263;23;20300;-51
2022/12/17 19:11:45;;;;;;;10.65;3.25;;;;;;;;;;6206112;23;20087;-49
2022/12/17 19:14:11;;;;;;;10.77;3.23;;;;;;;;;;6205774;23;20351;-52
2022/12/17 19:16:38;;;;;;;9.52;2.72;;;;;;;;;;6213760;23;20016;-53
2022/12/17 19:19:05;;;;;;;10.18;3.40;;;;;;;;;;6210344;23;20016;-48
2022/12/17 19:21:33;;;;;;;9.85;3.28;;;;;;;;;;6211542;23;20078;-51
2022/12/17 19:24:01;;;;;;;10.20;3.67;;;;;;;;;;6177122;23;20447;-50
2022/12/17 19:26:28;;;;;;;12.90;3.70;;;;;;;;;;6182089;23;20016;-50
2022/12/17 19:28:56;;;;;;;10.85;3.20;;;;;;;;;;6211790;23;20573;-52
2022/12/17 19:31:23;;;;;;;10.73;3.55;;;;;;;;;;6207882;23;20016;-53
2022/12/17 19:33:53;;;;;;;9.70;3.25;;;;;;;;;;6210335;23;20338;-55
2022/12/17 19:36:21;;;;;;;13.85;3.92;;;;;;;;;;6216851;23;20012;-52
2022/12/17 19:38:50;;;;;;;11.63;3.27;;;;;;;;;;6199476;23;20012;-55
2022/12/17 19:41:17;;;;;;;13.88;4.18;;;;;;;;;;6212852;23;20018;-57
2022/12/17 19:43:46;;;;;;;18.75;5.65;;;;;;;;;;6193796;23;20350;-48
2022/12/17 19:46:15;;;;;;;14.27;4.18;;;;;;;;;;6213856;23;20756;-52
2022/12/17 19:48:42;;;;;;;16.88;4.30;;;;;;;;;;6211474;23;20012;-49
2022/12/17 19:51:10;;;;;;;11.77;4.10;;;;;;;;;;6205882;23;20047;-51
2022/12/17 19:53:38;;;;;;;12.63;4.43;;;;;;;;;;6209456;23;20012;-53
2022/12/17 19:56:13;;;;;;;12.40;4.63;;;;;;;;;;6213063;23;20020;-50
2022/12/17 19:58:40;;;;;;;10.07;3.95;;;;;;;;;;6176678;23;20292;-53
2022/12/17 20:01:07;;;;;;;14.52;3.72;;;;;;;;;;6210274;23;20474;-53
2022/12/17 20:03:33;;;;;;;9.93;3.80;;;;;;;;;;6204844;23;20439;-50
2022/12/17 20:06:00;;;;;;;11.70;3.30;;;;;;;;;;6212740;23;20012;-54
2022/12/17 20:08:27;;;;;;;12.05;3.92;;;;;;;;;;6196561;23;20035;-53
2022/12/17 20:10:53;;;;;;;10.73;3.40;;;;;;;;;;6201257;23;20070;-49
2022/12/17 20:13:23;;;;;;;11.98;4.20;;;;;;;;;;6200409;23;20012;-52
2022/12/17 20:15:58;;;;;;;10.50;3.87;;;;;;;;;;6175611;23;20016;-54
2022/12/17 20:18:25;;;;;;;11.77;3.30;;;;;;;;;;6215738;23;20404;-49
2022/12/17 20:20:51;;;;;;;14.05;3.90;;;;;;;;;;6181547;23;20016;-53
2022/12/17 20:23:21;;;;;;;9.18;3.65;;;;;;;;;;6188616;23;20040;-54
2022/12/17 20:25:47;;;;;;;10.23;3.55;;;;;;;;;;6208369;23;20407;-52
2022/12/17 20:28:13;;;;;;;14.37;3.93;;;;;;;;;;6219331;23;20012;-52
2022/12/17 20:30:41;;;;;;;14.68;3.90;;;;;;;;;;6207604;23;20114;-50
2022/12/17 20:33:08;;;;;;;10.70;3.70;;;;;;;;;;6221785;23;20016;-52
2022/12/17 20:35:38;;;;;;;11.57;3.90;;;;;;;;;;6208605;23;20016;-54
2022/12/17 20:38:05;;;;;;;12.13;4.07;;;;;;;;;;6219645;23;20012;-52
2022/12/17 20:40:32;;;;;;;14.33;4.20;;;;;;;;;;6203280;23;20050;-52
2022/12/17 20:42:59;;;;;;;11.70;3.90;;;;;;;;;;6202418;23;20532;-54
2022/12/17 20:45:25;;;;;;;10.90;4.78;;;;;;;;;;6219233;23;20087;-55
2022/12/17 20:47:53;;;;;;;12.80;4.70;;;;;;;;;;6200949;23;20451;-54
2022/12/17 20:50:20;;;;;;;12.23;4.63;;;;;;;;;;6207432;23;20265;-57
2022/12/17 20:52:48;;;;;;;13.40;4.60;;;;;;;;;;6184086;23;20592;-55
2022/12/17 20:55:14;;;;;;;15.10;6.38;;;;;;;;;;6217227;23;20417;-51
2022/12/17 20:57:41;;;;;;;17.65;6.85;;;;;;;;;;6214964;23;20093;-52
2022/12/17 21:00:09;;;;;;;22.02;6.85;;;;;;;;;;6188120;23;20434;-49
2022/12/17 21:02:36;;;;;;;16.98;5.55;;;;;;;;;;6198053;23;20577;-51
2022/12/17 21:05:04;;;;;;;15.87;4.80;;;;;;;;;;6214046;23;20022;-56
2022/12/17 21:07:30;;;;;;;11.55;4.10;;;;;;;;;;6207766;23;20062;-52
2022/12/17 21:09:57;;;;;;;13.27;4.13;;;;;;;;;;6214234;23;20130;-53
2022/12/17 21:13:27;;;;;;;14.15;4.45;;;;;;;;;;6209858;23;20053;-50
2022/12/17 21:15:10;;;;;;;13.90;4.38;;;;;;;;;;6212521;23;20111;-52
2022/12/17 21:17:36;;;;;;;13.00;3.80;;;;;;;;;;6205633;23;20074;-55
2022/12/17 21:20:05;;;;;;;14.77;3.83;;;;;;;;;;6209402;23;20070;-52
2022/12/17 21:22:31;;;;;;;11.10;4.75;;;;;;;;;;6171435;23;20054;-55
2022/12/17 21:24:58;;;;;;;13.25;4.28;;;;;;;;;;6210922;23;20017;-50
2022/12/17 21:27:24;;;;;;;13.50;4.50;;;;;;;;;;6213217;23;20016;-50
2022/12/17 21:29:50;;;;;;;14.37;4.07;;;;;;;;;;6206754;23;20012;-51
2022/12/17 21:32:17;;;;;;;14.25;4.88;;;;;;;;;;6217089;23;20016;-53
2022/12/17 21:34:43;;;;;;;13.45;4.45;;;;;;;;;;6212839;23;20027;-52
2022/12/17 21:37:13;;;;;;;17.15;4.68;;;;;;;;;;6212294;23;20023;-53
2022/12/17 21:39:40;;;;;;;14.75;3.95;;;;;;;;;;6210838;23;20042;-50
2022/12/17 21:44:50;;;;;;;12.27;4.22;;;;;;;;;;6204972;23;20043;-51
2022/12/17 21:47:17;;;;;;;10.82;4.45;;;;;;;;;;6210676;23;20016;-53
2022/12/17 21:49:44;;;;;;;14.57;4.07;;;;;;;;;;6209111;23;20099;-51
2022/12/17 21:52:12;;;;;;;15.90;4.75;;;;;;;;;;6198910;23;20091;-50
2022/12/17 21:54:38;;;;;;;14.40;4.87;;;;;;;;;;6211631;23;20020;-52
2022/12/17 21:57:05;;;;;;;12.60;4.78;;;;;;;;;;6212735;23;20091;-52
2022/12/17 21:59:31;;;;;;;17.58;5.88;;;;;;;;;;6211445;23;20635;-53
2022/12/17 22:01:58;;;;;;;14.93;5.60;;;;;;;;;;6200423;23;20012;-50
2022/12/17 22:04:24;;;;;;;17.70;5.85;;;;;;;;;;6180824;23;20016;-51
2022/12/17 22:06:51;;;;;;;13.63;5.30;;;;;;;;;;6200597;23;20670;-51
2022/12/17 22:09:22;;;;;;;16.30;6.13;;;;;;;;;;6212048;23;20442;-49
2022/12/17 22:14:01;;;;;;;18.23;7.05;;;;;;;;;;6205597;23;20016;-52
2022/12/17 22:14:34;;;;;;;18.10;5.85;;;;;;;;;;6211276;23;20047;-52
2022/12/17 22:17:00;;;;;;;12.97;4.70;;;;;;;;;;6203842;23;20043;-51
2022/12/17 22:19:27;;;;;;;12.55;5.20;;;;;;;;;;6204879;23;20019;-50
2022/12/17 22:21:54;;;;;;;12.18;4.07;;;;;;;;;;6211530;23;20024;-51
2022/12/17 22:24:23;;;;;;;13.57;4.55;;;;;;;;;;6206920;23;20016;-51
2022/12/17 22:26:50;;;;;;;13.43;5.37;;;;;;;;;;6184689;23;20099;-52
2022/12/17 22:32:58;;;;;;;12.60;5.05;;;;;;;;;;6198196;23;20023;-50
2022/12/17 22:34:47;;;;;;;15.95;6.18;;;;;;;;;;6215820;23;20016;-53
2022/12/17 22:37:14;;;;;;;14.85;4.75;;;;;;;;;;6211300;23;20024;-50
2022/12/17 22:39:41;;;;;;;14.47;5.03;;;;;;;;;;6185971;23;20020;-53
2022/12/17 22:44:52;;;;;;;12.60;4.20;;;;;;;;;;6208706;23;20483;-49
2022/12/17 22:47:18;;;;;;;16.10;4.20;;;;;;;;;;6212595;23;20016;-50
2022/12/17 22:49:45;;;;;;;15.43;4.30;;;;;;;;;;6181489;23;20466;-53
2022/12/17 22:52:11;;;;;;;12.77;4.10;;;;;;;;;;6185848;23;20516;-52
2022/12/17 22:54:38;;;;;;;11.40;4.05;;;;;;;;;;6215224;23;20023;-54
2022/12/17 22:57:11;;;;;;;14.40;4.80;;;;;;;;;;6208200;23;20080;-52
2022/12/17 22:59:38;;;;;;;12.88;4.05;;;;;;;;;;6216629;23;20020;-52
2022/12/17 23:02:06;;;;;;;14.45;4.13;;;;;;;;;;6184092;23;20455;-53
2022/12/17 23:04:33;;;;;;;12.50;4.13;;;;;;;;;;6212315;23;20022;-52
2022/12/17 23:07:00;;;;;;;11.90;4.10;;;;;;;;;;6208545;23;20012;-53
2022/12/17 23:09:26;;;;;;;16.30;5.00;;;;;;;;;;6217983;23;20038;-53
2022/12/17 23:11:53;;;;;;;13.90;4.38;;;;;;;;;;6205308;23;20428;-56
2022/12/17 23:14:21;;;;;;;13.43;4.57;;;;;;;;;;6220314;23;20525;-52
2022/12/17 23:16:47;;;;;;;11.73;4.20;;;;;;;;;;6210241;23;20062;-53
2022/12/17 23:19:14;;;;;;;12.10;4.30;;;;;;;;;;6216273;23;20069;-53
2022/12/17 23:21:40;;;;;;;15.10;4.40;;;;;;;;;;6202675;23;20069;-53
2022/12/17 23:24:07;;;;;;;12.40;4.07;;;;;;;;;;6213269;23;20026;-48
2022/12/17 23:26:34;;;;;;;13.32;4.28;;;;;;;;;;6218879;23;20090;-49
2022/12/17 23:29:02;;;;;;;11.47;3.80;;;;;;;;;;6213157;23;20016;-55
2022/12/17 23:31:32;;;;;;;12.88;4.03;;;;;;;;;;6213808;23;20502;-50
2022/12/17 23:33:58;;;;;;;13.27;4.35;;;;;;;;;;6208393;23;20016;-51
2022/12/17 23:36:25;;;;;;;15.05;3.75;;;;;;;;;;6220343;23;20088;-55
2022/12/17 23:38:52;;;;;;;11.70;3.72;;;;;;;;;;6207040;23;20058;-52
2022/12/17 23:41:20;;;;;;;12.60;4.70;;;;;;;;;;6212695;23;20623;-52
2022/12/17 23:43:47;;;;;;;11.95;4.35;;;;;;;;;;6217010;23;20012;-52
2022/12/17 23:46:13;;;;;;;14.55;4.63;;;;;;;;;;6211286;23;20016;-49
2022/12/17 23:48:43;;;;;;;14.90;4.70;;;;;;;;;;6210478;23;20018;-54
2022/12/17 23:51:10;;;;;;;9.30;3.63;;;;;;;;;;6186661;23;20059;-53
2022/12/17 23:53:37;;;;;;;10.77;3.60;;;;;;;;;;6201283;23;20402;-49
2022/12/17 23:56:04;;;;;;;12.73;4.32;;;;;;;;;;6216763;23;20097;-52
2022/12/17 23:58:31;;;;;;;13.15;3.97;;;;;;;;;;6202928;23;20263;-53
